sensor_id;sensor_type;location;lat;lon;timestamp;temperature;humidity
5415;DHT22;2730;51.512;7.504;2023-09-07T00:00:38;17.70;1.00
5415;DHT22;2730;51.512;7.504;2023-09-07T00:03:05;17.70;1.00
5415;DHT22;2730;51.512;7.504;2023-09-07T00:05:33;17.60;1.00
5415;DHT22;2730;51.512;7.504;2023-09-07T00:08:00;17.60;1.00
5415;DHT22;2730;51.512;7.504;2023-09-07T00:10:27;17.50;1.00
5415;DHT22;2730;51.512;7.504;2023-09-07T00:12:53;17.60;1.00
5415;DHT22;2730;51.512;7.504;2023-09-07T00:15:20;17.50;1.00
5415;DHT22;2730;51.512;7.504;2023-09-07T00:17:47;17.50;1.00
5415;DHT22;2730;51.512;7.504;2023-09-07T00:20:15;17.60;1.00
5415;DHT22;2730;51.512;7.504;2023-09-07T00:22:43;17.50;1.00
5415;DHT22;2730;51.512;7.504;2023-09-07T00:25:09;17.50;1.00
5415;DHT22;2730;51.512;7.504;2023-09-07T00:27:37;17.50;1.00
5415;DHT22;2730;51.512;7.504;2023-09-07T00:30:04;17.50;1.00
5415;DHT22;2730;51.512;7.504;2023-09-07T00:32:32;17.40;1.00
5415;DHT22;2730;51.512;7.504;2023-09-07T00:34:59;17.40;1.00
5415;DHT22;2730;51.512;7.504;2023-09-07T00:37:26;17.30;1.00
5415;DHT22;2730;51.512;7.504;2023-09-07T00:39:54;17.30;1.10
5415;DHT22;2730;51.512;7.504;2023-09-07T00:42:21;17.20;5.70
5415;DHT22;2730;51.512;7.504;2023-09-07T00:44:48;17.20;3.90
5415;DHT22;2730;51.512;7.504;2023-09-07T00:47:14;17.20;1.00
5415;DHT22;2730;51.512;7.504;2023-09-07T00:49:41;17.30;1.00
5415;DHT22;2730;51.512;7.504;2023-09-07T00:52:08;17.20;9.10
5415;DHT22;2730;51.512;7.504;2023-09-07T00:54:36;17.20;24.00
5415;DHT22;2730;51.512;7.504;2023-09-07T00:57:06;17.10;29.50
5415;DHT22;2730;51.512;7.504;2023-09-07T00:59:33;17.10;31.90
5415;DHT22;2730;51.512;7.504;2023-09-07T01:02:00;17.10;33.50
5415;DHT22;2730;51.512;7.504;2023-09-07T01:04:27;17.10;38.50
5415;DHT22;2730;51.512;7.504;2023-09-07T01:06:57;17.00;38.60
5415;DHT22;2730;51.512;7.504;2023-09-07T01:09:28;17.00;41.20
5415;DHT22;2730;51.512;7.504;2023-09-07T01:11:56;17.00;29.00
5415;DHT22;2730;51.512;7.504;2023-09-07T01:14:24;17.00;29.50
5415;DHT22;2730;51.512;7.504;2023-09-07T01:16:51;16.90;17.10
5415;DHT22;2730;51.512;7.504;2023-09-07T01:19:19;16.90;31.70
5415;DHT22;2730;51.512;7.504;2023-09-07T01:21:47;16.80;39.50
5415;DHT22;2730;51.512;7.504;2023-09-07T01:24:15;16.80;68.00
5415;DHT22;2730;51.512;7.504;2023-09-07T01:26:42;16.80;58.20
5415;DHT22;2730;51.512;7.504;2023-09-07T01:29:14;16.70;60.00
5415;DHT22;2730;51.512;7.504;2023-09-07T01:31:43;16.70;74.30
5415;DHT22;2730;51.512;7.504;2023-09-07T01:34:09;16.70;89.30
5415;DHT22;2730;51.512;7.504;2023-09-07T01:36:37;16.70;99.90
5415;DHT22;2730;51.512;7.504;2023-09-07T01:39:05;16.70;99.90
5415;DHT22;2730;51.512;7.504;2023-09-07T01:41:32;16.70;99.90
5415;DHT22;2730;51.512;7.504;2023-09-07T01:43:59;16.60;99.90
5415;DHT22;2730;51.512;7.504;2023-09-07T01:46:26;16.60;99.90
5415;DHT22;2730;51.512;7.504;2023-09-07T01:48:53;16.60;99.90
5415;DHT22;2730;51.512;7.504;2023-09-07T01:51:20;16.50;99.90
5415;DHT22;2730;51.512;7.504;2023-09-07T01:53:47;16.50;99.90
5415;DHT22;2730;51.512;7.504;2023-09-07T01:56:16;16.50;99.90
5415;DHT22;2730;51.512;7.504;2023-09-07T01:58:42;16.50;99.90
5415;DHT22;2730;51.512;7.504;2023-09-07T02:01:20;16.50;99.90
5415;DHT22;2730;51.512;7.504;2023-09-07T02:03:47;16.50;99.90
5415;DHT22;2730;51.512;7.504;2023-09-07T02:06:14;16.40;99.90
5415;DHT22;2730;51.512;7.504;2023-09-07T02:08:41;16.40;99.90
5415;DHT22;2730;51.512;7.504;2023-09-07T02:11:07;16.40;99.90
5415;DHT22;2730;51.512;7.504;2023-09-07T02:13:36;16.40;99.90
5415;DHT22;2730;51.512;7.504;2023-09-07T02:16:03;16.30;99.90
5415;DHT22;2730;51.512;7.504;2023-09-07T02:18:31;16.30;99.90
5415;DHT22;2730;51.512;7.504;2023-09-07T02:21:01;16.30;99.90
5415;DHT22;2730;51.512;7.504;2023-09-07T02:23:29;16.30;99.90
5415;DHT22;2730;51.512;7.504;2023-09-07T02:25:56;16.30;99.90
5415;DHT22;2730;51.512;7.504;2023-09-07T02:28:23;16.20;99.90
5415;DHT22;2730;51.512;7.504;2023-09-07T02:30:52;16.10;99.90
5415;DHT22;2730;51.512;7.504;2023-09-07T02:33:18;16.10;99.90
5415;DHT22;2730;51.512;7.504;2023-09-07T02:35:47;16.10;99.90
5415;DHT22;2730;51.512;7.504;2023-09-07T02:38:14;16.10;99.90
5415;DHT22;2730;51.512;7.504;2023-09-07T02:40:41;16.10;99.90
5415;DHT22;2730;51.512;7.504;2023-09-07T02:43:08;16.10;99.90
5415;DHT22;2730;51.512;7.504;2023-09-07T02:45:35;16.00;99.90
5415;DHT22;2730;51.512;7.504;2023-09-07T02:48:04;16.00;99.90
5415;DHT22;2730;51.512;7.504;2023-09-07T02:50:33;16.00;99.90
5415;DHT22;2730;51.512;7.504;2023-09-07T02:53:00;16.00;99.90
5415;DHT22;2730;51.512;7.504;2023-09-07T02:55:28;16.00;99.90
5415;DHT22;2730;51.512;7.504;2023-09-07T02:57:56;15.90;99.90
5415;DHT22;2730;51.512;7.504;2023-09-07T03:00:22;15.90;99.90
5415;DHT22;2730;51.512;7.504;2023-09-07T03:02:49;15.90;99.90
5415;DHT22;2730;51.512;7.504;2023-09-07T03:05:17;15.80;99.90
5415;DHT22;2730;51.512;7.504;2023-09-07T03:07:45;15.80;99.90
5415;DHT22;2730;51.512;7.504;2023-09-07T03:10:12;15.70;99.90
5415;DHT22;2730;51.512;7.504;2023-09-07T03:12:39;15.70;99.90
5415;DHT22;2730;51.512;7.504;2023-09-07T03:15:07;15.70;99.90
5415;DHT22;2730;51.512;7.504;2023-09-07T03:17:33;15.60;99.90
5415;DHT22;2730;51.512;7.504;2023-09-07T03:20:00;15.60;99.90
5415;DHT22;2730;51.512;7.504;2023-09-07T03:22:31;15.60;99.90
5415;DHT22;2730;51.512;7.504;2023-09-07T03:24:58;15.60;99.90
5415;DHT22;2730;51.512;7.504;2023-09-07T03:27:25;15.60;99.90
5415;DHT22;2730;51.512;7.504;2023-09-07T03:29:51;15.50;99.90
5415;DHT22;2730;51.512;7.504;2023-09-07T03:32:18;15.50;99.90
5415;DHT22;2730;51.512;7.504;2023-09-07T03:34:45;15.50;99.90
5415;DHT22;2730;51.512;7.504;2023-09-07T03:37:12;15.50;99.90
5415;DHT22;2730;51.512;7.504;2023-09-07T03:39:40;15.40;99.90
5415;DHT22;2730;51.512;7.504;2023-09-07T03:42:06;15.40;99.90
5415;DHT22;2730;51.512;7.504;2023-09-07T03:44:33;15.40;99.90
5415;DHT22;2730;51.512;7.504;2023-09-07T03:47:01;15.40;99.90
5415;DHT22;2730;51.512;7.504;2023-09-07T03:49:29;15.40;99.90
5415;DHT22;2730;51.512;7.504;2023-09-07T03:51:55;15.40;99.90
5415;DHT22;2730;51.512;7.504;2023-09-07T03:54:22;15.40;99.90
5415;DHT22;2730;51.512;7.504;2023-09-07T03:56:50;15.40;99.90
5415;DHT22;2730;51.512;7.504;2023-09-07T03:59:17;15.40;99.90
5415;DHT22;2730;51.512;7.504;2023-09-07T04:01:44;15.40;99.90
5415;DHT22;2730;51.512;7.504;2023-09-07T04:04:11;15.40;99.90
5415;DHT22;2730;51.512;7.504;2023-09-07T04:06:37;15.40;99.90
5415;DHT22;2730;51.512;7.504;2023-09-07T04:09:04;15.40;99.90
5415;DHT22;2730;51.512;7.504;2023-09-07T04:11:31;15.40;99.90
5415;DHT22;2730;51.512;7.504;2023-09-07T04:13:59;15.40;99.90
5415;DHT22;2730;51.512;7.504;2023-09-07T04:16:26;15.30;99.90
5415;DHT22;2730;51.512;7.504;2023-09-07T04:18:53;15.30;99.90
5415;DHT22;2730;51.512;7.504;2023-09-07T04:21:19;15.30;99.90
5415;DHT22;2730;51.512;7.504;2023-09-07T04:23:46;15.30;99.90
5415;DHT22;2730;51.512;7.504;2023-09-07T04:26:13;15.30;99.90
5415;DHT22;2730;51.512;7.504;2023-09-07T04:28:40;15.30;99.90
5415;DHT22;2730;51.512;7.504;2023-09-07T04:31:10;15.20;99.90
5415;DHT22;2730;51.512;7.504;2023-09-07T04:33:37;15.20;99.90
5415;DHT22;2730;51.512;7.504;2023-09-07T04:36:08;15.20;99.90
5415;DHT22;2730;51.512;7.504;2023-09-07T04:38:35;15.20;99.90
5415;DHT22;2730;51.512;7.504;2023-09-07T04:41:06;15.20;99.90
5415;DHT22;2730;51.512;7.504;2023-09-07T04:43:33;15.20;99.90
5415;DHT22;2730;51.512;7.504;2023-09-07T04:46:00;15.20;99.90
5415;DHT22;2730;51.512;7.504;2023-09-07T04:48:28;15.10;99.90
5415;DHT22;2730;51.512;7.504;2023-09-07T04:50:58;15.10;99.90
5415;DHT22;2730;51.512;7.504;2023-09-07T04:53:24;15.10;99.90
5415;DHT22;2730;51.512;7.504;2023-09-07T04:55:50;15.00;99.90
5415;DHT22;2730;51.512;7.504;2023-09-07T04:58:17;15.00;99.90
5415;DHT22;2730;51.512;7.504;2023-09-07T05:00:44;15.00;99.90
5415;DHT22;2730;51.512;7.504;2023-09-07T05:03:10;15.00;99.90
5415;DHT22;2730;51.512;7.504;2023-09-07T05:05:39;15.00;99.90
5415;DHT22;2730;51.512;7.504;2023-09-07T05:08:06;14.90;99.90
5415;DHT22;2730;51.512;7.504;2023-09-07T05:10:33;14.90;99.90
5415;DHT22;2730;51.512;7.504;2023-09-07T05:13:00;15.00;99.90
5415;DHT22;2730;51.512;7.504;2023-09-07T05:15:27;15.00;99.90
5415;DHT22;2730;51.512;7.504;2023-09-07T05:17:54;15.00;99.90
5415;DHT22;2730;51.512;7.504;2023-09-07T05:20:21;15.00;99.90
5415;DHT22;2730;51.512;7.504;2023-09-07T05:22:49;15.00;99.90
5415;DHT22;2730;51.512;7.504;2023-09-07T05:25:16;15.00;99.90
5415;DHT22;2730;51.512;7.504;2023-09-07T05:27:44;15.00;99.90
5415;DHT22;2730;51.512;7.504;2023-09-07T05:30:11;15.00;99.90
5415;DHT22;2730;51.512;7.504;2023-09-07T05:32:38;15.00;99.90
5415;DHT22;2730;51.512;7.504;2023-09-07T05:35:07;15.00;99.90
5415;DHT22;2730;51.512;7.504;2023-09-07T05:37:35;15.10;99.90
5415;DHT22;2730;51.512;7.504;2023-09-07T05:40:05;15.00;99.90
5415;DHT22;2730;51.512;7.504;2023-09-07T05:42:31;15.10;99.90
5415;DHT22;2730;51.512;7.504;2023-09-07T05:44:58;15.10;99.90
5415;DHT22;2730;51.512;7.504;2023-09-07T05:47:25;15.20;99.90
5415;DHT22;2730;51.512;7.504;2023-09-07T05:49:52;15.30;99.90
5415;DHT22;2730;51.512;7.504;2023-09-07T05:52:18;15.30;99.90
5415;DHT22;2730;51.512;7.504;2023-09-07T05:54:45;15.30;99.90
5415;DHT22;2730;51.512;7.504;2023-09-07T05:57:13;15.40;99.90
5415;DHT22;2730;51.512;7.504;2023-09-07T05:59:40;15.50;99.90
5415;DHT22;2730;51.512;7.504;2023-09-07T06:02:07;15.50;99.90
5415;DHT22;2730;51.512;7.504;2023-09-07T06:04:34;15.60;99.90
5415;DHT22;2730;51.512;7.504;2023-09-07T06:07:00;15.60;99.90
5415;DHT22;2730;51.512;7.504;2023-09-07T06:09:28;15.70;99.90
5415;DHT22;2730;51.512;7.504;2023-09-07T06:11:55;15.70;99.90
5415;DHT22;2730;51.512;7.504;2023-09-07T06:14:23;15.80;99.90
5415;DHT22;2730;51.512;7.504;2023-09-07T06:16:50;15.90;99.90
5415;DHT22;2730;51.512;7.504;2023-09-07T06:19:17;15.90;99.90
5415;DHT22;2730;51.512;7.504;2023-09-07T06:21:43;16.00;99.90
5415;DHT22;2730;51.512;7.504;2023-09-07T06:24:10;16.10;99.90
5415;DHT22;2730;51.512;7.504;2023-09-07T06:26:37;16.20;99.90
5415;DHT22;2730;51.512;7.504;2023-09-07T06:29:04;16.30;99.90
5415;DHT22;2730;51.512;7.504;2023-09-07T06:31:32;16.30;99.90
5415;DHT22;2730;51.512;7.504;2023-09-07T06:33:58;16.50;99.90
5415;DHT22;2730;51.512;7.504;2023-09-07T06:36:25;16.50;99.90
5415;DHT22;2730;51.512;7.504;2023-09-07T06:38:52;16.60;99.90
5415;DHT22;2730;51.512;7.504;2023-09-07T06:41:19;16.70;99.90
5415;DHT22;2730;51.512;7.504;2023-09-07T06:43:45;16.80;77.00
5415;DHT22;2730;51.512;7.504;2023-09-07T06:46:12;17.00;1.00
5415;DHT22;2730;51.512;7.504;2023-09-07T06:48:40;17.20;1.00
5415;DHT22;2730;51.512;7.504;2023-09-07T06:51:07;18.00;1.00
5415;DHT22;2730;51.512;7.504;2023-09-07T06:53:34;18.80;99.90
5415;DHT22;2730;51.512;7.504;2023-09-07T06:56:03;19.20;13.30
5415;DHT22;2730;51.512;7.504;2023-09-07T06:58:30;19.50;1.00
5415;DHT22;2730;51.512;7.504;2023-09-07T07:00:58;19.80;27.10
5415;DHT22;2730;51.512;7.504;2023-09-07T07:03:26;20.00;1.00
5415;DHT22;2730;51.512;7.504;2023-09-07T07:05:55;20.30;1.00
5415;DHT22;2730;51.512;7.504;2023-09-07T07:08:22;21.10;99.90
5415;DHT22;2730;51.512;7.504;2023-09-07T07:10:49;22.40;99.90
5415;DHT22;2730;51.512;7.504;2023-09-07T07:13:16;22.80;1.00
5415;DHT22;2730;51.512;7.504;2023-09-07T07:15:42;23.30;1.00
5415;DHT22;2730;51.512;7.504;2023-09-07T07:18:09;24.80;67.70
5415;DHT22;2730;51.512;7.504;2023-09-07T07:20:37;26.20;1.00
5415;DHT22;2730;51.512;7.504;2023-09-07T07:23:05;27.50;99.90
5415;DHT22;2730;51.512;7.504;2023-09-07T07:25:32;28.80;99.90
5415;DHT22;2730;51.512;7.504;2023-09-07T07:27:59;29.90;62.90
5415;DHT22;2730;51.512;7.504;2023-09-07T07:30:27;30.60;1.00
5415;DHT22;2730;51.512;7.504;2023-09-07T07:32:54;31.40;1.00
5415;DHT22;2730;51.512;7.504;2023-09-07T07:35:21;32.30;1.00
5415;DHT22;2730;51.512;7.504;2023-09-07T07:37:49;32.60;1.00
5415;DHT22;2730;51.512;7.504;2023-09-07T07:40:18;32.80;1.00
5415;DHT22;2730;51.512;7.504;2023-09-07T07:42:45;33.40;1.00
5415;DHT22;2730;51.512;7.504;2023-09-07T07:45:12;33.90;1.00
5415;DHT22;2730;51.512;7.504;2023-09-07T07:47:40;34.10;1.00
5415;DHT22;2730;51.512;7.504;2023-09-07T07:50:07;34.50;1.00
5415;DHT22;2730;51.512;7.504;2023-09-07T07:52:34;34.80;1.00
5415;DHT22;2730;51.512;7.504;2023-09-07T07:55:01;34.70;1.00
5415;DHT22;2730;51.512;7.504;2023-09-07T07:57:29;35.10;1.00
5415;DHT22;2730;51.512;7.504;2023-09-07T07:59:56;34.90;1.00
5415;DHT22;2730;51.512;7.504;2023-09-07T08:02:23;35.30;1.00
5415;DHT22;2730;51.512;7.504;2023-09-07T08:04:49;35.50;1.00
5415;DHT22;2730;51.512;7.504;2023-09-07T08:07:16;35.60;1.00
5415;DHT22;2730;51.512;7.504;2023-09-07T08:09:43;35.50;1.00
5415;DHT22;2730;51.512;7.504;2023-09-07T08:12:10;35.20;1.00
5415;DHT22;2730;51.512;7.504;2023-09-07T08:14:38;35.30;1.00
5415;DHT22;2730;51.512;7.504;2023-09-07T08:17:05;35.50;1.00
5415;DHT22;2730;51.512;7.504;2023-09-07T08:19:33;35.10;1.00
5415;DHT22;2730;51.512;7.504;2023-09-07T08:22:00;35.20;1.00
5415;DHT22;2730;51.512;7.504;2023-09-07T08:24:29;35.70;1.00
5415;DHT22;2730;51.512;7.504;2023-09-07T08:26:55;35.80;1.00
5415;DHT22;2730;51.512;7.504;2023-09-07T08:29:23;36.00;1.00
5415;DHT22;2730;51.512;7.504;2023-09-07T08:31:53;36.40;1.00
5415;DHT22;2730;51.512;7.504;2023-09-07T08:34:20;36.40;1.00
5415;DHT22;2730;51.512;7.504;2023-09-07T08:36:47;36.20;1.00
5415;DHT22;2730;51.512;7.504;2023-09-07T08:39:16;36.20;1.00
5415;DHT22;2730;51.512;7.504;2023-09-07T08:41:43;36.30;1.00
5415;DHT22;2730;51.512;7.504;2023-09-07T08:44:11;36.50;1.00
5415;DHT22;2730;51.512;7.504;2023-09-07T08:46:40;36.00;1.00
5415;DHT22;2730;51.512;7.504;2023-09-07T08:49:09;36.00;1.00
5415;DHT22;2730;51.512;7.504;2023-09-07T08:51:37;36.30;1.00
5415;DHT22;2730;51.512;7.504;2023-09-07T08:54:04;36.30;1.00
5415;DHT22;2730;51.512;7.504;2023-09-07T08:56:32;36.30;1.00
5415;DHT22;2730;51.512;7.504;2023-09-07T08:58:59;35.70;1.00
5415;DHT22;2730;51.512;7.504;2023-09-07T09:01:25;36.10;1.00
5415;DHT22;2730;51.512;7.504;2023-09-07T09:03:57;36.20;1.00
5415;DHT22;2730;51.512;7.504;2023-09-07T09:06:26;36.40;1.00
5415;DHT22;2730;51.512;7.504;2023-09-07T09:08:54;36.60;1.00
5415;DHT22;2730;51.512;7.504;2023-09-07T09:11:22;36.80;1.00
5415;DHT22;2730;51.512;7.504;2023-09-07T09:13:50;36.80;1.00
5415;DHT22;2730;51.512;7.504;2023-09-07T09:16:18;36.80;1.00
5415;DHT22;2730;51.512;7.504;2023-09-07T09:18:48;36.60;1.00
5415;DHT22;2730;51.512;7.504;2023-09-07T09:21:17;36.40;1.00
5415;DHT22;2730;51.512;7.504;2023-09-07T09:23:48;36.90;1.00
5415;DHT22;2730;51.512;7.504;2023-09-07T09:26:15;37.40;1.00
5415;DHT22;2730;51.512;7.504;2023-09-07T09:28:42;37.50;1.00
5415;DHT22;2730;51.512;7.504;2023-09-07T09:31:10;37.20;1.00
5415;DHT22;2730;51.512;7.504;2023-09-07T09:33:38;37.20;1.00
5415;DHT22;2730;51.512;7.504;2023-09-07T09:36:06;37.00;1.00
5415;DHT22;2730;51.512;7.504;2023-09-07T09:38:33;37.00;1.00
5415;DHT22;2730;51.512;7.504;2023-09-07T09:41:01;37.00;1.00
5415;DHT22;2730;51.512;7.504;2023-09-07T09:43:29;36.60;1.00
5415;DHT22;2730;51.512;7.504;2023-09-07T09:45:56;35.90;1.00
5415;DHT22;2730;51.512;7.504;2023-09-07T09:48:24;36.20;1.00
5415;DHT22;2730;51.512;7.504;2023-09-07T09:50:52;36.20;1.00
5415;DHT22;2730;51.512;7.504;2023-09-07T09:53:20;35.80;1.00
5415;DHT22;2730;51.512;7.504;2023-09-07T09:55:48;35.90;1.00
5415;DHT22;2730;51.512;7.504;2023-09-07T09:58:17;35.80;1.00
5415;DHT22;2730;51.512;7.504;2023-09-07T10:00:44;36.10;1.00
5415;DHT22;2730;51.512;7.504;2023-09-07T10:03:15;36.40;1.00
5415;DHT22;2730;51.512;7.504;2023-09-07T10:05:44;36.40;1.00
5415;DHT22;2730;51.512;7.504;2023-09-07T10:08:13;36.10;1.00
5415;DHT22;2730;51.512;7.504;2023-09-07T10:10:42;36.10;1.00
5415;DHT22;2730;51.512;7.504;2023-09-07T10:13:09;36.40;1.00
5415;DHT22;2730;51.512;7.504;2023-09-07T10:15:37;36.70;1.00
5415;DHT22;2730;51.512;7.504;2023-09-07T10:18:10;36.10;1.00
5415;DHT22;2730;51.512;7.504;2023-09-07T10:20:51;35.60;1.00
5415;DHT22;2730;51.512;7.504;2023-09-07T10:23:18;35.40;1.00
5415;DHT22;2730;51.512;7.504;2023-09-07T10:25:49;35.60;1.00
5415;DHT22;2730;51.512;7.504;2023-09-07T10:28:20;35.70;1.00
5415;DHT22;2730;51.512;7.504;2023-09-07T10:30:59;35.70;1.00
5415;DHT22;2730;51.512;7.504;2023-09-07T10:33:26;35.60;1.00
5415;DHT22;2730;51.512;7.504;2023-09-07T10:35:53;35.90;1.00
5415;DHT22;2730;51.512;7.504;2023-09-07T10:38:20;35.50;1.00
5415;DHT22;2730;51.512;7.504;2023-09-07T10:40:47;35.80;1.00
5415;DHT22;2730;51.512;7.504;2023-09-07T10:43:14;35.50;1.00
5415;DHT22;2730;51.512;7.504;2023-09-07T10:45:44;34.80;1.00
5415;DHT22;2730;51.512;7.504;2023-09-07T10:48:13;35.00;1.00
5415;DHT22;2730;51.512;7.504;2023-09-07T10:50:43;34.90;1.00
5415;DHT22;2730;51.512;7.504;2023-09-07T10:53:12;34.90;1.00
5415;DHT22;2730;51.512;7.504;2023-09-07T10:55:40;34.90;1.00
5415;DHT22;2730;51.512;7.504;2023-09-07T10:58:09;35.00;1.00
5415;DHT22;2730;51.512;7.504;2023-09-07T11:00:36;34.80;1.00
5415;DHT22;2730;51.512;7.504;2023-09-07T11:03:07;34.00;1.00
5415;DHT22;2730;51.512;7.504;2023-09-07T11:05:37;33.10;1.00
5415;DHT22;2730;51.512;7.504;2023-09-07T11:08:06;32.10;1.00
5415;DHT22;2730;51.512;7.504;2023-09-07T11:10:33;31.10;1.00
5415;DHT22;2730;51.512;7.504;2023-09-07T11:13:02;30.70;1.00
5415;DHT22;2730;51.512;7.504;2023-09-07T11:15:29;30.50;1.00
5415;DHT22;2730;51.512;7.504;2023-09-07T11:17:57;30.30;1.00
5415;DHT22;2730;51.512;7.504;2023-09-07T11:20:24;30.30;1.00
5415;DHT22;2730;51.512;7.504;2023-09-07T11:22:53;30.20;1.00
5415;DHT22;2730;51.512;7.504;2023-09-07T11:25:20;30.10;1.00
5415;DHT22;2730;51.512;7.504;2023-09-07T11:27:47;29.90;1.00
5415;DHT22;2730;51.512;7.504;2023-09-07T11:30:14;29.90;1.00
5415;DHT22;2730;51.512;7.504;2023-09-07T11:32:40;29.80;1.00
5415;DHT22;2730;51.512;7.504;2023-09-07T11:35:09;29.70;1.00
5415;DHT22;2730;51.512;7.504;2023-09-07T11:37:36;29.70;1.00
5415;DHT22;2730;51.512;7.504;2023-09-07T11:40:05;29.50;1.00
5415;DHT22;2730;51.512;7.504;2023-09-07T11:42:37;29.60;1.00
5415;DHT22;2730;51.512;7.504;2023-09-07T11:45:06;29.60;1.00
5415;DHT22;2730;51.512;7.504;2023-09-07T11:47:34;29.60;1.00
5415;DHT22;2730;51.512;7.504;2023-09-07T11:50:02;29.40;1.00
5415;DHT22;2730;51.512;7.504;2023-09-07T11:52:28;29.50;1.00
5415;DHT22;2730;51.512;7.504;2023-09-07T11:54:55;29.50;1.00
5415;DHT22;2730;51.512;7.504;2023-09-07T11:57:23;29.50;1.00
5415;DHT22;2730;51.512;7.504;2023-09-07T11:59:50;29.30;1.00
5415;DHT22;2730;51.512;7.504;2023-09-07T12:02:17;29.40;1.00
5415;DHT22;2730;51.512;7.504;2023-09-07T12:04:46;29.50;1.00
5415;DHT22;2730;51.512;7.504;2023-09-07T12:07:13;29.40;1.00
5415;DHT22;2730;51.512;7.504;2023-09-07T12:09:41;29.40;1.00
5415;DHT22;2730;51.512;7.504;2023-09-07T12:12:08;29.40;1.00
5415;DHT22;2730;51.512;7.504;2023-09-07T12:14:37;29.40;1.00
5415;DHT22;2730;51.512;7.504;2023-09-07T12:17:04;29.40;1.00
5415;DHT22;2730;51.512;7.504;2023-09-07T12:19:31;29.30;1.00
5415;DHT22;2730;51.512;7.504;2023-09-07T12:21:58;29.30;1.00
5415;DHT22;2730;51.512;7.504;2023-09-07T12:24:25;29.30;1.00
5415;DHT22;2730;51.512;7.504;2023-09-07T12:26:53;29.30;1.00
5415;DHT22;2730;51.512;7.504;2023-09-07T12:29:20;29.40;1.00
5415;DHT22;2730;51.512;7.504;2023-09-07T12:31:48;29.40;1.00
5415;DHT22;2730;51.512;7.504;2023-09-07T12:34:15;29.50;1.00
5415;DHT22;2730;51.512;7.504;2023-09-07T12:36:42;29.40;1.00
5415;DHT22;2730;51.512;7.504;2023-09-07T12:39:08;29.40;1.00
5415;DHT22;2730;51.512;7.504;2023-09-07T12:41:38;29.40;1.00
5415;DHT22;2730;51.512;7.504;2023-09-07T12:44:04;29.30;1.00
5415;DHT22;2730;51.512;7.504;2023-09-07T12:46:31;29.30;1.00
5415;DHT22;2730;51.512;7.504;2023-09-07T12:49:00;29.20;1.00
5415;DHT22;2730;51.512;7.504;2023-09-07T12:51:26;29.20;1.00
5415;DHT22;2730;51.512;7.504;2023-09-07T12:53:53;29.20;1.00
5415;DHT22;2730;51.512;7.504;2023-09-07T12:56:20;29.40;1.00
5415;DHT22;2730;51.512;7.504;2023-09-07T12:58:47;29.40;1.00
5415;DHT22;2730;51.512;7.504;2023-09-07T13:01:14;29.40;1.00
5415;DHT22;2730;51.512;7.504;2023-09-07T13:03:42;29.50;1.00
5415;DHT22;2730;51.512;7.504;2023-09-07T13:06:10;29.40;1.00
5415;DHT22;2730;51.512;7.504;2023-09-07T13:08:37;29.40;1.00
5415;DHT22;2730;51.512;7.504;2023-09-07T13:11:04;29.50;1.00
5415;DHT22;2730;51.512;7.504;2023-09-07T13:13:31;29.50;1.00
5415;DHT22;2730;51.512;7.504;2023-09-07T13:15:58;29.40;1.00
5415;DHT22;2730;51.512;7.504;2023-09-07T13:18:26;29.40;1.00
5415;DHT22;2730;51.512;7.504;2023-09-07T13:20:53;29.40;1.00
5415;DHT22;2730;51.512;7.504;2023-09-07T13:23:26;29.50;1.00
5415;DHT22;2730;51.512;7.504;2023-09-07T13:25:53;29.40;1.00
5415;DHT22;2730;51.512;7.504;2023-09-07T13:28:20;29.50;1.00
5415;DHT22;2730;51.512;7.504;2023-09-07T13:30:47;29.50;1.00
5415;DHT22;2730;51.512;7.504;2023-09-07T13:33:14;29.50;1.00
5415;DHT22;2730;51.512;7.504;2023-09-07T13:35:41;29.60;1.00
5415;DHT22;2730;51.512;7.504;2023-09-07T13:38:09;29.70;1.00
5415;DHT22;2730;51.512;7.504;2023-09-07T13:40:37;29.70;1.00
5415;DHT22;2730;51.512;7.504;2023-09-07T13:43:04;29.70;1.00
5415;DHT22;2730;51.512;7.504;2023-09-07T13:45:31;29.70;1.00
5415;DHT22;2730;51.512;7.504;2023-09-07T13:47:58;29.70;1.00
5415;DHT22;2730;51.512;7.504;2023-09-07T13:50:26;29.80;1.00
5415;DHT22;2730;51.512;7.504;2023-09-07T13:52:54;29.80;1.00
5415;DHT22;2730;51.512;7.504;2023-09-07T13:55:21;29.80;1.00
5415;DHT22;2730;51.512;7.504;2023-09-07T13:57:50;29.70;1.00
5415;DHT22;2730;51.512;7.504;2023-09-07T14:00:17;29.70;1.00
5415;DHT22;2730;51.512;7.504;2023-09-07T14:02:43;29.90;1.00
5415;DHT22;2730;51.512;7.504;2023-09-07T14:05:10;29.90;1.00
5415;DHT22;2730;51.512;7.504;2023-09-07T14:07:37;30.00;1.00
5415;DHT22;2730;51.512;7.504;2023-09-07T14:10:04;30.00;1.00
5415;DHT22;2730;51.512;7.504;2023-09-07T14:12:31;30.00;1.00
5415;DHT22;2730;51.512;7.504;2023-09-07T14:14:59;30.00;1.00
5415;DHT22;2730;51.512;7.504;2023-09-07T14:17:26;30.00;1.00
5415;DHT22;2730;51.512;7.504;2023-09-07T14:19:53;30.10;1.00
5415;DHT22;2730;51.512;7.504;2023-09-07T14:22:19;30.10;1.00
5415;DHT22;2730;51.512;7.504;2023-09-07T14:24:47;30.10;1.00
5415;DHT22;2730;51.512;7.504;2023-09-07T14:27:14;30.10;1.00
5415;DHT22;2730;51.512;7.504;2023-09-07T14:29:40;30.00;1.00
5415;DHT22;2730;51.512;7.504;2023-09-07T14:32:09;30.00;1.00
5415;DHT22;2730;51.512;7.504;2023-09-07T14:34:36;30.00;1.00
5415;DHT22;2730;51.512;7.504;2023-09-07T14:37:03;30.00;1.00
5415;DHT22;2730;51.512;7.504;2023-09-07T14:39:30;30.00;1.00
5415;DHT22;2730;51.512;7.504;2023-09-07T14:41:57;30.00;1.00
5415;DHT22;2730;51.512;7.504;2023-09-07T14:44:24;30.00;1.00
5415;DHT22;2730;51.512;7.504;2023-09-07T14:46:51;30.00;1.00
5415;DHT22;2730;51.512;7.504;2023-09-07T14:49:19;30.00;1.00
5415;DHT22;2730;51.512;7.504;2023-09-07T14:51:46;30.00;1.00
5415;DHT22;2730;51.512;7.504;2023-09-07T14:54:13;29.90;1.00
5415;DHT22;2730;51.512;7.504;2023-09-07T14:56:40;29.90;1.00
5415;DHT22;2730;51.512;7.504;2023-09-07T14:59:07;29.90;1.00
5415;DHT22;2730;51.512;7.504;2023-09-07T15:01:34;30.00;1.00
5415;DHT22;2730;51.512;7.504;2023-09-07T15:04:01;29.90;1.00
5415;DHT22;2730;51.512;7.504;2023-09-07T15:06:29;29.90;1.00
5415;DHT22;2730;51.512;7.504;2023-09-07T15:08:58;29.90;1.00
5415;DHT22;2730;51.512;7.504;2023-09-07T15:11:25;29.80;1.00
5415;DHT22;2730;51.512;7.504;2023-09-07T15:13:52;29.80;1.00
5415;DHT22;2730;51.512;7.504;2023-09-07T15:16:20;29.80;1.00
5415;DHT22;2730;51.512;7.504;2023-09-07T15:18:47;29.80;1.00
5415;DHT22;2730;51.512;7.504;2023-09-07T15:21:14;29.80;1.00
5415;DHT22;2730;51.512;7.504;2023-09-07T15:23:42;29.70;1.00
5415;DHT22;2730;51.512;7.504;2023-09-07T15:26:09;29.70;1.00
5415;DHT22;2730;51.512;7.504;2023-09-07T15:28:37;29.60;1.00
5415;DHT22;2730;51.512;7.504;2023-09-07T15:31:04;29.50;1.00
5415;DHT22;2730;51.512;7.504;2023-09-07T15:33:31;29.50;1.00
5415;DHT22;2730;51.512;7.504;2023-09-07T15:35:58;29.50;1.00
5415;DHT22;2730;51.512;7.504;2023-09-07T15:38:25;29.50;1.00
5415;DHT22;2730;51.512;7.504;2023-09-07T15:40:53;29.50;1.00
5415;DHT22;2730;51.512;7.504;2023-09-07T15:43:20;29.40;1.00
5415;DHT22;2730;51.512;7.504;2023-09-07T15:45:47;29.40;1.00
5415;DHT22;2730;51.512;7.504;2023-09-07T15:48:13;29.50;1.00
5415;DHT22;2730;51.512;7.504;2023-09-07T15:50:40;29.40;1.00
5415;DHT22;2730;51.512;7.504;2023-09-07T15:53:07;29.50;1.00
5415;DHT22;2730;51.512;7.504;2023-09-07T15:55:34;29.40;1.00
5415;DHT22;2730;51.512;7.504;2023-09-07T15:58:03;29.30;1.00
5415;DHT22;2730;51.512;7.504;2023-09-07T16:00:29;29.40;1.00
5415;DHT22;2730;51.512;7.504;2023-09-07T16:02:56;29.30;1.00
5415;DHT22;2730;51.512;7.504;2023-09-07T16:05:23;29.30;1.00
5415;DHT22;2730;51.512;7.504;2023-09-07T16:07:51;29.10;1.00
5415;DHT22;2730;51.512;7.504;2023-09-07T16:10:18;29.10;1.00
5415;DHT22;2730;51.512;7.504;2023-09-07T16:12:45;29.10;1.00